createdAt,value
2024-02-22T00:01:46.608Z,101343.16
2024-02-22T00:04:15.180Z,101334.38
2024-02-22T00:06:42.668Z,101339.75
2024-02-22T00:09:10.043Z,101340.72
2024-02-22T00:11:37.482Z,101332.78
2024-02-22T00:14:05.017Z,101327.53
2024-02-22T00:16:32.408Z,101330.22
2024-02-22T00:18:59.793Z,101325.81
2024-02-22T00:21:27.243Z,101323.13
2024-02-22T00:23:54.533Z,101307.97
2024-02-22T00:26:22.464Z,101301.72
2024-02-22T00:28:49.919Z,101301.72
2024-02-22T00:31:17.275Z,101300.88
2024-02-22T00:33:47.693Z,101291.97
2024-02-22T00:36:15.101Z,101290.13
2024-02-22T00:38:43.709Z,101284.84
2024-02-22T00:41:11.298Z,101282.16
2024-02-22T00:43:38.670Z,101283.88
2024-02-22T00:46:06.124Z,101288.41
2024-02-22T00:48:33.659Z,101272.28
2024-02-22T00:51:02.558Z,101277.66
2024-02-22T00:53:29.993Z,101261.63
2024-02-22T00:55:57.406Z,101276.91
2024-02-22T00:58:25.428Z,101266.03
2024-02-22T01:00:52.738Z,101266.16
2024-02-22T01:03:20.135Z,101258.09
2024-02-22T01:05:47.538Z,101256.38
2024-02-22T01:08:15.042Z,101251.88
2024-02-22T01:10:42.438Z,101242.94
2024-02-22T01:13:10.118Z,101240.34
2024-02-22T01:15:37.798Z,101244.78
2024-02-22T01:18:05.973Z,101239.50
2024-02-22T01:20:33.428Z,101243.06
2024-02-22T01:23:02.111Z,101238.66
2024-02-22T01:25:29.612Z,101232.44
2024-02-22T01:27:57.128Z,101236.97
2024-02-22T01:30:24.473Z,101234.13
2024-02-22T01:32:51.945Z,101230.59
2024-02-22T01:35:19.567Z,101216.44
2024-02-22T01:37:47.631Z,101226.22
2024-02-22T01:40:16.278Z,101219.13
2024-02-22T01:42:44.001Z,101208.38
2024-02-22T01:45:11.891Z,101210.22
2024-02-22T01:47:40.531Z,101207.53
2024-02-22T01:50:09.675Z,101201.25
2024-02-22T01:52:37.240Z,101201.25
2024-02-22T01:55:07.933Z,101198.56
2024-02-22T01:57:35.989Z,101195.03
2024-02-22T02:00:09.663Z,101190.38
2024-02-22T02:02:41.066Z,101182.44
2024-02-22T02:05:08.505Z,101177.94
2024-02-22T02:07:37.226Z,101177.06
2024-02-22T02:10:05.151Z,101176.94
2024-02-22T02:12:33.572Z,101168.13
2024-02-22T02:15:00.966Z,101160.06
2024-02-22T02:17:28.314Z,101144.91
2024-02-22T02:19:57.423Z,101139.53
2024-02-22T02:23:02.445Z,101123.41
2024-02-22T02:25:31.885Z,101117.19
2024-02-22T02:27:59.619Z,101108.97
2024-02-22T02:30:26.938Z,101109.97
2024-02-22T02:32:54.284Z,101114.50
2024-02-22T02:35:21.791Z,101111.78
2024-02-22T02:37:49.200Z,101117.19
2024-02-22T02:40:16.549Z,101113.50
2024-02-22T02:42:43.957Z,101109.97
2024-02-22T02:45:11.501Z,101110.94
2024-02-22T02:47:38.873Z,101102.88
2024-02-22T02:50:08.362Z,101105.56
2024-02-22T02:52:35.793Z,101102.88
2024-02-22T02:55:03.173Z,101095.81
2024-02-22T02:57:30.483Z,101099.34
2024-02-22T02:59:57.997Z,101088.69
2024-02-22T03:02:25.449Z,101081.47
2024-02-22T03:04:52.986Z,101077.09
2024-02-22T03:07:20.317Z,101078.78
2024-02-22T03:09:47.785Z,101076.22
2024-02-22T03:12:15.189Z,101080.63
2024-02-22T03:14:42.579Z,101073.53
2024-02-22T03:17:10.030Z,101075.38
2024-02-22T03:19:37.445Z,101084.28
2024-02-22T03:22:04.679Z,101080.75
2024-02-22T03:24:31.904Z,101070.84
2024-02-22T03:26:59.309Z,101067.28
2024-02-22T03:29:27.278Z,101070.84
2024-02-22T03:31:54.609Z,101068.28
2024-02-22T03:34:22.563Z,101073.66
2024-02-22T03:36:50.078Z,101068.28
2024-02-22T03:39:18.104Z,101070.97
2024-02-22T03:41:46.617Z,101072.81
2024-02-22T03:44:16.252Z,101069.13
2024-02-22T03:46:51.767Z,101072.69
2024-02-22T03:49:19.224Z,101063.75
2024-02-22T03:51:46.562Z,101072.69
2024-02-22T03:54:13.971Z,101074.50
2024-02-22T03:56:41.796Z,101069.13
2024-02-22T03:59:09.370Z,101070.84
2024-02-22T04:01:37.396Z,101064.59
2024-02-22T04:04:05.236Z,101056.53
2024-02-22T04:06:34.970Z,101055.56
2024-02-22T04:09:03.728Z,101059.13
2024-02-22T04:11:32.476Z,101067.19
2024-02-22T04:13:59.881Z,101067.19
2024-02-22T04:16:27.211Z,101071.72
2024-02-22T04:18:54.621Z,101060.94
2024-02-22T04:21:22.012Z,101056.44
2024-02-22T04:23:49.372Z,101040.41
2024-02-22T04:26:16.664Z,101038.72
2024-02-22T04:28:44.795Z,101043.09
2024-02-22T04:31:12.185Z,101036.03
2024-02-22T04:33:39.568Z,101042.25
2024-02-22T04:36:07.474Z,101032.47
2024-02-22T04:38:34.995Z,101035.16
2024-02-22T04:41:02.375Z,101024.41
2024-02-22T04:43:29.794Z,101019.88
2024-02-22T04:45:57.112Z,101009.13
2024-02-22T04:48:24.578Z,101003.75
2024-02-22T04:50:52.008Z,100996.53
2024-02-22T04:53:19.448Z,101000.91
2024-02-22T04:55:47.214Z,100984.78
2024-02-22T04:58:14.565Z,100986.63
2024-02-22T05:00:41.914Z,100975.00
2024-02-22T05:03:09.995Z,100975.00
2024-02-22T05:05:37.955Z,100974.28
2024-02-22T05:08:05.827Z,100971.59
2024-02-22T05:10:35.497Z,100968.06
2024-02-22T05:13:03.361Z,100976.97
2024-02-22T05:15:30.672Z,100979.66
2024-02-22T05:18:00.986Z,100975.28
2024-02-22T05:20:29.802Z,100970.88
2024-02-22T05:22:57.135Z,100969.19
2024-02-22T05:25:24.867Z,100980.66
2024-02-22T05:27:52.364Z,100976.28
2024-02-22T05:30:19.710Z,100973.59
2024-02-22T05:32:47.109Z,100969.91
2024-02-22T05:35:14.655Z,100961.97
2024-02-22T05:37:42.092Z,100970.75
2024-02-22T05:40:09.840Z,100961.84
2024-02-22T05:42:37.554Z,100958.16
2024-02-22T05:45:05.783Z,100962.69
2024-02-22T05:47:33.199Z,100960.84
2024-02-22T05:50:00.652Z,100963.53
2024-02-22T05:52:28.252Z,100969.91
2024-02-22T05:54:55.895Z,100968.06
2024-02-22T05:57:23.195Z,100973.44
2024-02-22T05:59:50.494Z,100969.06
2024-02-22T06:02:18.015Z,100977.97
2024-02-22T06:04:46.105Z,100978.81
2024-02-22T06:07:14.087Z,100975.28
2024-02-22T06:09:41.559Z,100978.81
2024-02-22T06:12:12.376Z,100969.06
2024-02-22T06:14:41.466Z,100960.97
2024-02-22T06:17:08.866Z,100967.22
2024-02-22T06:19:36.354Z,100968.19
2024-02-22T06:22:03.836Z,100965.50
2024-02-22T06:24:31.526Z,100949.38
2024-02-22T06:26:58.880Z,100948.53
2024-02-22T06:29:26.152Z,100948.53
2024-02-22T06:31:53.466Z,100942.31
2024-02-22T06:34:20.874Z,100948.53
2024-02-22T06:36:48.180Z,100934.25
2024-02-22T06:39:15.432Z,100924.44
2024-02-22T06:41:42.831Z,100917.22
2024-02-22T06:44:10.221Z,100907.34
2024-02-22T06:46:37.611Z,100909.16
2024-02-22T06:49:05.440Z,100899.41
2024-02-22T06:51:32.784Z,100905.63
2024-02-22T06:54:00.129Z,100895.88
2024-02-22T06:56:27.505Z,100890.47
2024-02-22T06:58:54.886Z,100899.41
2024-02-22T07:01:22.306Z,100898.56
2024-02-22T07:03:49.645Z,100902.25
2024-02-22T07:06:17.297Z,100903.94
2024-02-22T07:08:45.434Z,100912.00
2024-02-22T07:11:15.193Z,100913.84
2024-02-22T07:13:42.637Z,100917.38
2024-02-22T07:16:10.141Z,100903.94
2024-02-22T07:18:37.527Z,100903.78
2024-02-22T07:21:06.350Z,100904.78
2024-02-22T07:23:34.420Z,100899.41
2024-02-22T07:26:02.003Z,100894.88
2024-02-22T07:28:29.519Z,100898.41
2024-02-22T07:30:57.502Z,100900.13
2024-02-22T07:33:24.895Z,100897.28
2024-02-22T07:35:52.362Z,100890.91
2024-02-22T07:38:19.905Z,100886.38
2024-02-22T07:40:47.339Z,100877.34
2024-02-22T07:43:14.777Z,100875.50
2024-02-22T07:45:45.333Z,100880.03
2024-02-22T07:48:13.329Z,100865.75
2024-02-22T07:50:41.065Z,100854.25
2024-02-22T07:53:08.554Z,100849.88
2024-02-22T07:55:37.934Z,100852.56
2024-02-22T07:58:05.502Z,100852.56
2024-02-22T08:00:32.911Z,100845.34
2024-02-22T08:03:00.352Z,100851.72
2024-02-22T08:05:27.913Z,100853.41
2024-02-22T08:07:55.321Z,100844.34
2024-02-22T08:10:22.744Z,100856.69
2024-02-22T08:12:50.049Z,100856.69
2024-02-22T08:15:17.442Z,100858.38
2024-02-22T08:17:45.980Z,100850.31
2024-02-22T08:20:16.340Z,100854.84
2024-02-22T08:22:43.963Z,100845.94
2024-02-22T08:25:11.513Z,100842.41
2024-02-22T08:27:46.536Z,100833.47
2024-02-22T08:30:21.873Z,100827.22
2024-02-22T08:32:49.338Z,100822.00
2024-02-22T08:35:16.897Z,100818.47
2024-02-22T08:37:44.403Z,100806.13
2024-02-22T08:40:25.138Z,100805.44
2024-02-22T08:43:02.085Z,100808.41
2024-02-22T08:45:29.525Z,100798.66
2024-02-22T08:47:56.997Z,100799.63
2024-02-22T08:50:24.469Z,100788.16
2024-02-22T08:52:51.923Z,100778.41
2024-02-22T08:55:19.287Z,100770.47
2024-02-22T08:57:52.161Z,100773.16
2024-02-22T09:00:21.235Z,100779.53
2024-02-22T09:02:52.220Z,100776.81
2024-02-22T09:05:20.591Z,100783.91
2024-02-22T09:07:51.057Z,100781.09
2024-02-22T09:10:22.274Z,100783.78
2024-02-22T09:12:49.702Z,100786.31
2024-02-22T09:15:17.153Z,100776.41
2024-02-22T09:17:44.550Z,100777.25
2024-02-22T09:20:14.073Z,100775.28
2024-02-22T09:22:44.993Z,100760.00
2024-02-22T09:25:12.704Z,100754.63
2024-02-22T09:27:40.102Z,100754.63
2024-02-22T09:30:08.027Z,100766.22
2024-02-22T09:32:37.079Z,100766.78
2024-02-22T09:35:05.178Z,100763.13
2024-02-22T09:37:32.600Z,100758.03
2024-02-22T09:40:00.242Z,100765.53
2024-02-22T09:42:29.334Z,100762.97
2024-02-22T09:44:57.910Z,100767.66
2024-02-22T09:47:26.155Z,100762.38
2024-02-22T09:49:56.327Z,100763.28
2024-02-22T09:52:24.418Z,100772.03
2024-02-22T09:54:52.216Z,100770.47
2024-02-22T09:57:19.588Z,100770.47
2024-02-22T09:59:52.035Z,100760.44
2024-02-22T10:02:20.839Z,100762.13
2024-02-22T10:04:58.391Z,100757.75
2024-02-22T10:07:33.279Z,100769.34
2024-02-22T10:10:00.828Z,100768.34
2024-02-22T10:12:35.076Z,100765.97
2024-02-22T10:15:10.505Z,100775.72
2024-02-22T10:17:39.500Z,100777.56
2024-02-22T10:20:09.010Z,100772.28
2024-02-22T10:22:40.822Z,100772.44
2024-02-22T10:25:10.503Z,100781.50
2024-02-22T10:27:39.243Z,100786.16
2024-02-22T10:30:11.209Z,100787.84
2024-02-22T10:32:43.108Z,100786.31
2024-02-22T10:35:13.172Z,100777.53
2024-02-22T10:37:41.377Z,100782.06
2024-02-22T10:40:13.094Z,100785.31
2024-02-22T10:42:41.385Z,100780.50
2024-02-22T10:45:09.750Z,100781.22
2024-02-22T10:47:40.748Z,100774.88
2024-02-22T10:50:08.889Z,100776.41
2024-02-22T10:52:41.526Z,100777.13
2024-02-22T10:55:17.511Z,100770.91
2024-02-22T10:57:48.889Z,100757.31
2024-02-22T11:00:16.998Z,100749.25
2024-02-22T11:02:46.378Z,100743.88
2024-02-22T11:05:14.965Z,100735.66
2024-02-22T11:07:45.403Z,100730.16
2024-02-22T11:10:13.357Z,100718.56
2024-02-22T11:12:47.008Z,100719.41
2024-02-22T11:15:15.526Z,100715.72
2024-02-22T11:17:53.632Z,100724.63
2024-02-22T11:20:34.174Z,100714.72
2024-02-22T11:23:17.585Z,100722.78
2024-02-22T11:25:45.985Z,100720.09
2024-02-22T11:28:14.590Z,100710.19
2024-02-22T11:30:42.241Z,100711.91
2024-02-22T11:33:11.315Z,100694.94
2024-02-22T11:35:39.594Z,100685.97
2024-02-22T11:38:07.759Z,100694.78
2024-02-22T11:40:38.285Z,100688.53
2024-02-22T11:43:06.042Z,100683.16
2024-02-22T11:45:40.089Z,100674.25
2024-02-22T11:48:08.341Z,100672.41
2024-02-22T11:50:35.834Z,100653.59
2024-02-22T11:53:04.776Z,100660.66
2024-02-22T11:55:35.601Z,100658.13
2024-02-22T11:58:03.463Z,100641.84
2024-02-22T12:00:31.000Z,100637.47
2024-02-22T12:02:58.628Z,100633.78
2024-02-22T12:05:26.589Z,100623.00
2024-02-22T12:07:54.532Z,100623.84
2024-02-22T12:10:25.308Z,100608.56
2024-02-22T12:12:52.896Z,100606.72
2024-02-22T12:15:23.253Z,100584.38
2024-02-22T12:18:00.773Z,100580.72
2024-02-22T12:20:28.849Z,100578.03
2024-02-22T12:22:56.799Z,100563.69
2024-02-22T12:25:24.293Z,100557.34
2024-02-22T12:27:55.098Z,100558.19
2024-02-22T12:30:23.574Z,100548.28
2024-02-22T12:32:52.064Z,100552.81
2024-02-22T12:35:20.444Z,100546.44
2024-02-22T12:37:50.523Z,100538.38
2024-02-22T12:40:19.170Z,100526.66
2024-02-22T12:42:55.527Z,100522.25
2024-02-22T12:45:23.647Z,100513.19
2024-02-22T12:47:51.419Z,100507.81
2024-02-22T12:50:19.008Z,100501.59
2024-02-22T12:52:46.542Z,100502.44
2024-02-22T12:55:14.224Z,100498.91
2024-02-22T12:57:41.532Z,100497.06
2024-02-22T13:00:12.895Z,100486.31
2024-02-22T13:02:41.578Z,100476.41
2024-02-22T13:05:09.213Z,100476.41
2024-02-22T13:07:39.141Z,100464.81
2024-02-22T13:10:07.353Z,100454.88
2024-02-22T13:12:36.627Z,100453.06
2024-02-22T13:15:05.507Z,100450.38
2024-02-22T13:17:33.705Z,100444.13
2024-02-22T13:20:01.313Z,100438.75
2024-02-22T13:22:28.726Z,100433.38
2024-02-22T13:24:56.140Z,100425.31
2024-02-22T13:27:23.677Z,100421.78
2024-02-22T13:29:51.337Z,100419.94
2024-02-22T13:32:20.726Z,100421.78
2024-02-22T13:34:51.408Z,100419.09
2024-02-22T13:37:19.181Z,100419.09
2024-02-22T13:39:46.617Z,100410.19
2024-02-22T13:42:15.155Z,100394.88
2024-02-22T13:44:42.635Z,100396.72
2024-02-22T13:47:13.311Z,100388.66
2024-02-22T13:49:40.991Z,100389.50
2024-02-22T13:52:14.226Z,100387.66
2024-02-22T13:54:45.321Z,100382.41
2024-02-22T13:57:14.191Z,100379.72
2024-02-22T13:59:41.940Z,100375.22
2024-02-22T14:02:09.419Z,100365.31
2024-02-22T14:04:37.118Z,100365.31
2024-02-22T14:07:04.740Z,100361.66
2024-02-22T14:09:34.704Z,100350.16
2024-02-22T14:12:03.320Z,100341.94
2024-02-22T14:14:30.848Z,100337.44
2024-02-22T14:17:02.120Z,100336.56
2024-02-22T14:19:29.760Z,100333.88
2024-02-22T14:21:57.060Z,100333.88
2024-02-22T14:24:25.950Z,100328.50
2024-02-22T14:26:54.355Z,100325.81
2024-02-22T14:29:22.281Z,100321.31
2024-02-22T14:31:50.510Z,100321.31
2024-02-22T14:34:18.572Z,100324.00
2024-02-22T14:36:47.408Z,100328.38
2024-02-22T14:39:21.101Z,100324.84
2024-02-22T14:41:48.446Z,100317.75
2024-02-22T14:44:16.018Z,100316.78
2024-02-22T14:46:44.811Z,100314.09
2024-02-22T14:49:12.169Z,100313.25
2024-02-22T14:51:40.337Z,100301.63
2024-02-22T14:54:08.029Z,100303.31
2024-02-22T14:56:35.654Z,100308.84
2024-02-22T14:59:03.066Z,100315.06
2024-02-22T15:01:30.430Z,100304.31
2024-02-22T15:03:57.824Z,100313.25
2024-02-22T15:06:25.357Z,100315.94
2024-02-22T15:08:52.688Z,100321.31
2024-02-22T15:11:20.131Z,100315.94
2024-02-22T15:13:47.975Z,100313.25
2024-02-22T15:16:15.978Z,100317.75
2024-02-22T15:18:43.617Z,100309.69
2024-02-22T15:21:11.608Z,100285.47
2024-02-22T15:23:39.881Z,100289.19
2024-02-22T15:26:08.605Z,100289.88
2024-02-22T15:28:36.013Z,100292.72
2024-02-22T15:31:03.630Z,100298.94
2024-02-22T15:33:31.096Z,100300.63
2024-02-22T15:35:58.831Z,100289.88
2024-02-22T15:38:28.198Z,100289.03
2024-02-22T15:40:55.714Z,100287.31
2024-02-22T15:43:27.491Z,100301.63
2024-02-22T15:45:59.637Z,100285.47
2024-02-22T15:48:27.416Z,100288.16
2024-02-22T15:50:54.789Z,100289.03
2024-02-22T15:53:22.201Z,100277.41
2024-02-22T15:55:49.801Z,100273.88
2024-02-22T15:58:17.625Z,100275.72
2024-02-22T16:00:46.629Z,100277.41
2024-02-22T16:03:14.848Z,100265.81
2024-02-22T16:05:45.104Z,100255.91
2024-02-22T16:08:13.714Z,100259.47
2024-02-22T16:10:41.405Z,100250.38
2024-02-22T16:13:10.824Z,100249.56
2024-02-22T16:15:39.386Z,100241.47
2024-02-22T16:18:08.069Z,100238.94
2024-02-22T16:20:35.499Z,100249.69
2024-02-22T16:23:03.637Z,100248.72
2024-02-22T16:25:32.275Z,100248.84
2024-02-22T16:27:59.759Z,100247.97
2024-02-22T16:30:27.153Z,100253.34
2024-02-22T16:32:54.614Z,100249.69
2024-02-22T16:35:22.154Z,100241.63
2024-02-22T16:37:49.569Z,100244.31
2024-02-22T16:40:22.008Z,100238.09
2024-02-22T16:42:50.878Z,100220.25
2024-02-22T16:45:18.626Z,100216.56
2024-02-22T16:47:47.144Z,100231.84
2024-02-22T16:50:14.666Z,100235.41
2024-02-22T16:52:43.363Z,100233.56
2024-02-22T16:55:10.753Z,100232.72
2024-02-22T16:57:38.275Z,100236.09
2024-02-22T17:00:08.845Z,100229.00
2024-02-22T17:02:37.407Z,100223.63
2024-02-22T17:05:05.662Z,100220.94
2024-02-22T17:07:33.029Z,100225.47
2024-02-22T17:10:00.414Z,100212.88
2024-02-22T17:12:27.776Z,100215.56
2024-02-22T17:14:56.194Z,100208.38
2024-02-22T17:17:23.682Z,100212.75
2024-02-22T17:19:51.547Z,100212.56
2024-02-22T17:22:19.991Z,100214.13
2024-02-22T17:24:47.742Z,100220.19
2024-02-22T17:27:15.163Z,100216.50
2024-02-22T17:29:42.869Z,100231.63
2024-02-22T17:32:10.310Z,100232.47
2024-02-22T17:34:37.793Z,100235.00
2024-02-22T17:37:06.088Z,100230.34
2024-02-22T17:39:33.570Z,100229.31
2024-02-22T17:42:00.972Z,100230.03
2024-02-22T17:44:28.913Z,100234.09
2024-02-22T17:47:00.702Z,100225.16
2024-02-22T17:49:28.373Z,100220.66
2024-02-22T17:51:55.922Z,100220.66
2024-02-22T17:54:23.292Z,100214.41
2024-02-22T17:56:50.810Z,100215.28
2024-02-22T17:59:18.122Z,100202.78
2024-02-22T18:01:46.364Z,100199.13
2024-02-22T18:04:15.948Z,100192.03
2024-02-22T18:09:46.216Z,100178.47
2024-02-22T18:12:14.564Z,100171.06
2024-02-22T18:14:42.808Z,100164.84
2024-02-22T18:17:10.197Z,100162.16
2024-02-22T18:19:37.589Z,100159.47
2024-02-22T18:22:06.299Z,100159.47
2024-02-22T18:24:33.718Z,100152.41
2024-02-22T18:27:00.993Z,100150.72
2024-02-22T18:29:29.589Z,100149.72
2024-02-22T18:31:57.111Z,100147.03
2024-02-22T18:34:24.587Z,100137.09
2024-02-22T18:36:52.273Z,100136.25
2024-02-22T18:39:19.796Z,100131.72
2024-02-22T18:41:47.119Z,100130.72
2024-02-22T18:44:14.538Z,100120.97
2024-02-22T18:46:45.076Z,100118.28
2024-02-22T18:49:13.489Z,100116.41
2024-02-22T18:51:40.907Z,100120.78
2024-02-22T18:54:09.309Z,100110.03
2024-02-22T18:56:37.945Z,100108.34
2024-02-22T18:59:08.785Z,100109.06
2024-02-22T19:01:36.176Z,100087.66
2024-02-22T19:04:04.133Z,100100.09
2024-02-22T19:06:31.632Z,100089.53
2024-02-22T19:08:59.011Z,100083.97
2024-02-22T19:11:27.545Z,100085.81
2024-02-22T19:13:55.758Z,100075.06
2024-02-22T19:16:26.069Z,100057.94
2024-02-22T19:18:53.760Z,100060.63
2024-02-22T19:21:21.099Z,100058.94
2024-02-22T19:23:48.350Z,100062.44
2024-02-22T19:26:16.139Z,100056.09
2024-02-22T19:28:43.684Z,100050.53
2024-02-22T19:31:11.085Z,100046.19
2024-02-22T19:33:39.235Z,100035.41
2024-02-22T19:36:06.782Z,100020.13
2024-02-22T19:38:34.638Z,100021.97
2024-02-22T19:41:08.801Z,100022.81
2024-02-22T19:43:37.158Z,100019.28
2024-02-22T19:46:05.245Z,100015.56
2024-02-22T19:48:32.998Z,100008.53
2024-02-22T19:51:02.295Z,100010.19
2024-02-22T19:53:30.702Z,100006.66
2024-02-22T19:55:58.180Z,100003.97
2024-02-22T19:58:26.911Z,100011.22
2024-02-22T20:00:54.279Z,100022.63
2024-02-22T20:03:22.272Z,100013.72
2024-02-22T20:05:50.148Z,100015.56
2024-02-22T20:08:17.584Z,100014.56
2024-02-22T20:10:47.150Z,100010.72
2024-02-22T20:13:16.098Z,100013.59
2024-02-22T20:15:43.508Z,100023.47
2024-02-22T20:18:11.091Z,100023.47
2024-02-22T20:20:38.629Z,100006.50
2024-02-22T20:23:06.115Z,100005.34
2024-02-22T20:25:33.624Z,100000.13
2024-02-22T20:28:01.120Z,100003.66
2024-02-22T20:30:28.504Z,99981.31
2024-02-22T20:32:55.927Z,99981.31
2024-02-22T20:35:26.169Z,99973.22
2024-02-22T20:37:54.581Z,99963.13
2024-02-22T20:40:22.358Z,99962.81
2024-02-22T20:42:49.707Z,99956.44
2024-02-22T20:45:17.082Z,99951.88
2024-02-22T20:47:44.484Z,99930.38
2024-02-22T20:50:11.978Z,99923.31
2024-02-22T20:52:39.780Z,99926.00
2024-02-22T20:55:10.519Z,99928.88
2024-02-22T20:57:38.658Z,99921.94
2024-02-22T21:00:06.764Z,99936.25
2024-02-22T21:02:35.046Z,99929.19
2024-02-22T21:05:02.732Z,99927.50
2024-02-22T21:07:30.920Z,99930.19
2024-02-22T21:09:58.250Z,99915.88
2024-02-22T21:12:26.065Z,99931.19
2024-02-22T21:14:53.405Z,99930.19
2024-02-22T21:17:21.449Z,99927.66
2024-02-22T21:19:49.178Z,99916.88
2024-02-22T21:22:16.644Z,99909.00
2024-02-22T21:24:44.364Z,99893.69
2024-02-22T21:27:12.120Z,99898.22
2024-02-22T21:29:39.553Z,99892.03
2024-02-22T21:32:08.612Z,99876.84
2024-02-22T21:34:36.060Z,99871.47
2024-02-22T21:37:03.735Z,99865.25
2024-02-22T21:39:31.177Z,99875.19
2024-02-22T21:41:58.486Z,99875.19
2024-02-22T21:44:27.107Z,99863.59
2024-02-22T21:46:55.429Z,99865.25
2024-02-22T21:49:22.733Z,99855.34
2024-02-22T21:51:49.990Z,99846.44
2024-02-22T21:54:17.322Z,99843.75
2024-02-22T21:56:44.642Z,99833.81
2024-02-22T21:59:14.967Z,99824.91
2024-02-22T22:01:42.405Z,99826.63
2024-02-22T22:04:09.783Z,99826.63
2024-02-22T22:06:37.176Z,99820.38
2024-02-22T22:09:04.928Z,99815.88
2024-02-22T22:11:32.482Z,99819.41
2024-02-22T22:14:00.361Z,99810.50
2024-02-22T22:16:27.746Z,99809.47
2024-02-22T22:18:55.144Z,99809.28
2024-02-22T22:21:29.006Z,99819.72
2024-02-22T22:24:02.126Z,99795.34
2024-02-22T22:26:33.817Z,99803.09
2024-02-22T22:29:08.102Z,99796.69
2024-02-22T22:31:37.397Z,99776.88
2024-02-22T22:34:08.446Z,99770.47
2024-02-22T22:36:35.910Z,99776.88
2024-02-22T22:39:06.148Z,99772.16
2024-02-22T22:41:33.647Z,99767.94
2024-02-22T22:44:00.965Z,99778.88
2024-02-22T22:46:28.298Z,99771.66
2024-02-22T22:49:00.553Z,99765.44
2024-02-22T22:51:27.924Z,99758.38
2024-02-22T22:53:55.413Z,99759.22
2024-02-22T22:56:22.863Z,99753.00
2024-02-22T22:58:50.187Z,99744.91
2024-02-22T23:01:18.151Z,99746.78
2024-02-22T23:03:47.825Z,99737.00
2024-02-22T23:06:17.239Z,99725.25
2024-02-22T23:08:45.044Z,99729.81
2024-02-22T23:11:12.682Z,99726.09
2024-02-22T23:13:40.536Z,99730.63
2024-02-22T23:16:07.885Z,99731.47
2024-02-22T23:18:35.275Z,99729.81
2024-02-22T23:21:02.878Z,99717.19
2024-02-22T23:23:30.270Z,99716.34
2024-02-22T23:25:59.203Z,99715.34
2024-02-22T23:28:26.890Z,99696.66
2024-02-22T23:30:54.252Z,99685.91
2024-02-22T23:33:22.752Z,99686.75
2024-02-22T23:35:50.552Z,99688.59
2024-02-22T23:38:17.932Z,99678.84
2024-02-22T23:40:56.802Z,99672.63
2024-02-22T23:43:32.602Z,99676.34
2024-02-22T23:45:59.920Z,99668.25
2024-02-22T23:48:27.344Z,99657.50
2024-02-22T23:50:55.098Z,99668.25
2024-02-22T23:53:23.441Z,99670.13
2024-02-22T23:55:51.846Z,99678.00
2024-02-22T23:58:19.195Z,99681.72
